Time;durP1;ratioP1;P1;durP2;ratioP2;P2;SDS_P1;SDS_P2;PMS_P1;PMS_P2;Temp;Humidity;BMP_temperature;BMP_pressure;BME280_temperature;BME280_humidity;BME280_pressure;Samples;Min_cycle;Max_cycle;Signal;HPM_P1;HPM_P2
2023/10/16 00:01:03;;;;;;;1.30;1.20;;;9.00;65.90;7.30;96989.00;;;;5093630;28;20226;-83
2023/10/16 00:03:33;;;;;;;1.50;1.40;;;9.00;66.10;7.30;96985.00;;;;5093582;28;20568;-83
2023/10/16 00:06:05;;;;;;;2.10;1.53;;;9.00;66.10;7.20;96988.00;;;;5093279;28;20298;-83
2023/10/16 00:08:33;;;;;;;1.57;1.47;;;8.90;66.10;7.20;96981.00;;;;5093703;28;20663;-83
2023/10/16 00:11:03;;;;;;;1.70;1.60;;;8.90;66.10;7.20;96977.00;;;;5092287;28;20656;-84
2023/10/16 00:13:35;;;;;;;1.83;1.73;;;8.90;66.10;7.20;96982.00;;;;5093267;28;20203;-83
2023/10/16 00:16:04;;;;;;;1.60;1.50;;;8.80;65.90;7.10;96982.00;;;;5092936;28;20211;-83
2023/10/16 00:18:34;;;;;;;1.30;1.20;;;8.80;65.80;7.10;96977.00;;;;5091415;28;20205;-83
2023/10/16 00:21:05;;;;;;;1.43;1.33;;;8.80;65.80;7.10;96981.00;;;;5091620;28;20222;-84
2023/10/16 00:23:38;;;;;;;1.90;1.30;;;8.80;66.10;7.10;96978.00;;;;5090426;28;20294;-83
2023/10/16 00:26:06;;;;;;;1.70;1.60;;;8.80;66.20;7.10;96972.00;;;;5087000;28;20207;-84
2023/10/16 00:28:34;;;;;;;2.47;1.40;;;8.80;66.10;7.10;96961.00;;;;5092031;28;20207;-83
2023/10/16 00:31:03;;;;;;;1.70;1.60;;;8.70;66.00;7.00;96966.00;;;;5073889;28;20202;-83
2023/10/16 00:33:33;;;;;;;1.70;1.60;;;8.80;66.10;7.00;96964.00;;;;5093501;28;20202;-83
2023/10/16 00:36:02;;;;;;;1.57;1.47;;;8.70;66.30;7.00;96961.00;;;;5093504;28;20233;-84
2023/10/16 00:38:36;;;;;;;1.83;1.40;;;8.70;66.50;7.00;96955.00;;;;5093988;28;20196;-83
2023/10/16 00:41:15;;;;;;;1.70;1.60;;;8.70;66.50;7.00;96949.00;;;;5091080;28;20226;-83
2023/10/16 00:43:43;;;;;;;1.57;1.47;;;8.70;66.40;7.00;96942.00;;;;5093531;28;20223;-83
2023/10/16 00:46:18;;;;;;;1.63;1.30;;;8.70;66.50;7.00;96935.00;;;;5097865;28;20223;-83
2023/10/16 00:48:47;;;;;;;1.40;1.30;;;8.70;66.60;7.00;96932.00;;;;5095357;28;20205;-83
2023/10/16 00:51:16;;;;;;;2.83;1.70;;;8.70;66.40;7.00;96936.00;;;;5096269;28;20222;-83
2023/10/16 00:53:45;;;;;;;1.33;1.23;;;8.70;66.40;7.00;96927.00;;;;5126854;27;20222;-83
2023/10/16 00:56:13;;;;;;;1.50;1.40;;;8.70;66.60;7.00;96932.00;;;;5097454;28;20222;-84
2023/10/16 00:58:42;;;;;;;1.23;1.13;;;8.70;66.40;7.00;96928.00;;;;5097086;28;20199;-83
2023/10/16 01:01:12;;;;;;;3.00;1.50;;;8.70;66.30;7.00;96931.00;;;;5095625;28;20648;-83
2023/10/16 01:03:41;;;;;;;2.10;1.37;;;8.70;66.20;7.00;96932.00;;;;5096158;28;20198;-83
2023/10/16 01:06:16;;;;;;;1.63;1.40;;;8.70;66.20;7.00;96931.00;;;;5090641;28;20230;-83
2023/10/16 01:08:49;;;;;;;2.00;1.47;;;8.60;66.30;6.90;96919.00;;;;5096306;28;20217;-83
2023/10/16 01:11:18;;;;;;;4.77;1.57;;;8.60;66.50;6.90;96925.00;;;;5093579;28;20203;-83
2023/10/16 01:13:47;;;;;;;1.53;1.43;;;8.60;66.50;6.90;96916.00;;;;5092729;28;20200;-83
2023/10/16 01:16:16;;;;;;;2.00;1.80;;;8.60;66.30;6.90;96926.00;;;;5093596;28;20310;-83
2023/10/16 01:18:44;;;;;;;1.70;1.60;;;8.60;66.10;6.90;96938.00;;;;5090225;28;20195;-83
2023/10/16 01:21:14;;;;;;;2.53;1.63;;;8.60;66.10;6.90;96927.00;;;;5093653;28;20227;-83
2023/10/16 01:23:44;;;;;;;1.70;1.57;;;8.50;65.90;6.80;96924.00;;;;5093660;28;20668;-83
2023/10/16 01:26:13;;;;;;;2.33;1.70;;;8.50;66.00;6.80;96929.00;;;;5092248;28;20242;-83
2023/10/16 01:28:41;;;;;;;2.17;1.43;;;8.50;66.10;6.80;96926.00;;;;5093503;28;20203;-84
2023/10/16 01:31:09;;;;;;;2.00;1.60;;;8.50;66.10;6.80;96925.00;;;;5094014;28;20206;-83
2023/10/16 01:33:39;;;;;;;1.53;1.33;;;8.50;66.90;6.70;96925.00;;;;5095581;28;20226;-83
2023/10/16 01:36:07;;;;;;;1.50;1.40;;;8.40;66.00;6.70;96925.00;;;;5090074;28;20235;-83
2023/10/16 01:38:34;;;;;;;2.20;1.73;;;8.40;65.90;6.70;96919.00;;;;5095013;28;20192;-83
2023/10/16 01:41:07;;;;;;;1.47;1.30;;;8.40;65.90;6.70;96916.00;;;;5077198;28;20223;-83
2023/10/16 01:43:35;;;;;;;1.67;1.47;;;8.40;65.90;6.60;96916.00;;;;5094824;28;20218;-83
2023/10/16 01:46:08;;;;;;;1.40;1.30;;;8.40;66.00;6.60;96921.00;;;;5094470;28;20265;-83
2023/10/16 01:48:37;;;;;;;2.00;1.90;;;8.30;66.10;6.60;96919.00;;;;5093807;28;20209;-83
2023/10/16 01:51:06;;;;;;;1.40;1.30;;;8.30;66.20;6.60;96929.00;;;;5088406;28;20195;-84
2023/10/16 01:53:36;;;;;;;1.70;1.53;;;8.20;66.20;6.60;96924.00;;;;5093871;28;20195;-83
2023/10/16 01:56:12;;;;;;;1.80;1.43;;;8.30;66.20;6.60;96919.00;;;;5094059;28;20214;-83
2023/10/16 01:58:41;;;;;;;1.40;1.30;;;8.30;66.40;6.60;96915.00;;;;5094753;28;20198;-84
2023/10/16 02:01:10;;;;;;;2.03;1.37;;;8.30;66.30;6.60;96909.00;;;;5117711;27;20250;-83
2023/10/16 02:03:38;;;;;;;1.50;1.30;;;8.30;66.30;6.60;96910.00;;;;5093384;28;20203;-83
2023/10/16 02:06:06;;;;;;;1.93;1.80;;;8.30;66.40;6.60;96909.00;;;;5089946;28;20317;-84
2023/10/16 02:08:33;;;;;;;3.53;1.70;;;8.30;66.50;6.60;96914.00;;;;5094313;28;20203;-83
2023/10/16 02:11:02;;;;;;;1.50;1.40;;;8.30;66.50;6.60;96905.00;;;;5091616;28;20327;-83
2023/10/16 02:13:35;;;;;;;2.03;1.40;;;8.30;66.40;6.60;96910.00;;;;5091754;28;20245;-83
2023/10/16 02:16:02;;;;;;;1.60;1.50;;;8.30;66.50;6.60;96909.00;;;;5092965;28;20215;-83
2023/10/16 02:18:36;;;;;;;1.87;1.23;;;8.30;66.40;6.60;96906.00;;;;5091421;28;20199;-83
2023/10/16 02:21:04;;;;;;;1.10;1.00;;;8.30;66.30;6.60;96900.00;;;;5091906;28;20215;-83
2023/10/16 02:23:31;;;;;;;1.30;1.20;;;8.30;66.20;6.60;96904.00;;;;5091325;28;20214;-83
2023/10/16 02:26:01;;;;;;;1.53;1.43;;;8.30;66.30;6.60;96898.00;;;;5093937;28;20227;-83
2023/10/16 02:28:31;;;;;;;2.93;0.90;;;8.40;66.30;6.60;96899.00;;;;5109358;28;20195;-83
2023/10/16 02:31:10;;;;;;;1.27;1.17;;;8.30;66.10;6.50;96893.00;;;;5094571;28;20290;-83
2023/10/16 02:33:38;;;;;;;1.57;1.40;;;8.30;66.10;6.50;96902.00;;;;5094145;28;20298;-83
2023/10/16 02:36:07;;;;;;;1.03;1.03;;;8.30;66.00;6.50;96900.00;;;;5092890;28;20222;-83
2023/10/16 02:38:34;;;;;;;1.33;1.10;;;8.20;65.80;6.50;96911.00;;;;5094324;28;20199;-83
2023/10/16 02:41:03;;;;;;;1.20;1.10;;;8.20;65.80;6.50;96894.00;;;;5090564;28;20794;-83
2023/10/16 02:43:36;;;;;;;1.40;1.20;;;8.20;65.90;6.40;96898.00;;;;5094747;28;20603;-83
2023/10/16 02:46:05;;;;;;;1.47;1.27;;;8.20;66.10;6.40;96895.00;;;;5093265;28;20215;-83
2023/10/16 02:48:32;;;;;;;1.20;1.10;;;8.10;66.10;6.40;96900.00;;;;5095292;28;20207;-83
2023/10/16 02:50:59;;;;;;;1.83;1.43;;;8.10;65.90;6.40;96895.00;;;;5095293;28;20199;-83
2023/10/16 02:53:29;;;;;;;1.53;1.20;;;8.10;65.80;6.30;96892.00;;;;5094722;28;20286;-83
2023/10/16 02:56:04;;;;;;;2.37;1.23;;;8.00;65.70;6.30;96896.00;;;;5092967;28;20215;-83
2023/10/16 02:58:34;;;;;;;1.80;1.20;;;8.10;65.90;6.30;96891.00;;;;5093598;28;20214;-83
2023/10/16 03:01:06;;;;;;;2.53;1.53;;;8.00;65.80;6.30;96880.00;;;;5093783;28;20215;-83
2023/10/16 03:03:33;;;;;;;3.30;1.30;;;8.00;65.90;6.30;96884.00;;;;5093290;28;20620;-83
2023/10/16 03:06:03;;;;;;;1.40;1.30;;;8.00;66.10;6.30;96889.00;;;;5092375;28;20218;-83
2023/10/16 03:08:30;;;;;;;1.40;1.30;;;8.00;67.00;6.20;96885.00;;;;5090549;28;20191;-83
2023/10/16 03:10:59;;;;;;;1.47;1.37;;;8.00;66.00;6.20;96882.00;;;;5091925;28;20652;-83
2023/10/16 03:13:27;;;;;;;1.50;1.40;;;8.00;65.90;6.20;96886.00;;;;5091312;28;20603;-83
2023/10/16 03:16:05;;;;;;;2.23;1.30;;;8.00;65.80;6.20;96892.00;;;;5092307;28;20254;-83
2023/10/16 03:18:32;;;;;;;1.40;1.30;;;7.90;65.70;6.20;96889.00;;;;5092319;28;20227;-83
2023/10/16 03:21:07;;;;;;;1.53;1.17;;;7.90;65.80;6.10;96885.00;;;;5094363;28;20229;-83
2023/10/16 03:23:35;;;;;;;1.40;1.30;;;7.90;65.90;6.10;96892.00;;;;5097384;28;20202;-83
2023/10/16 03:26:09;;;;;;;1.40;1.30;;;7.80;65.90;6.10;96885.00;;;;5081221;28;20219;-83
2023/10/16 03:28:37;;;;;;;1.00;1.00;;;7.90;65.90;6.10;96885.00;;;;5101079;28;20196;-83
2023/10/16 03:31:05;;;;;;;1.50;1.30;;;7.90;65.90;6.10;96890.00;;;;5100417;28;20202;-82
2023/10/16 03:33:35;;;;;;;1.10;1.00;;;7.80;66.10;6.10;96881.00;;;;5099279;28;20664;-83
2023/10/16 03:36:05;;;;;;;0.90;0.90;;;7.80;66.20;6.10;96881.00;;;;5095838;28;20215;-83
2023/10/16 03:38:36;;;;;;;0.97;0.87;;;7.80;66.40;6.10;96872.00;;;;5091674;28;20207;-83
2023/10/16 03:41:11;;;;;;;1.63;1.20;;;7.80;66.40;6.20;96873.00;;;;5091861;28;20219;-83
2023/10/16 03:43:42;;;;;;;1.00;1.00;;;7.80;66.60;6.20;96876.00;;;;5092821;28;20240;-83
2023/10/16 03:46:12;;;;;;;1.30;1.20;;;7.90;66.60;6.20;96878.00;;;;5091640;28;20219;-83
2023/10/16 03:48:40;;;;;;;1.10;1.00;;;7.90;66.60;6.20;96870.00;;;;5091552;28;20604;-83
2023/10/16 03:51:07;;;;;;;1.10;1.00;;;7.90;66.50;6.20;96878.00;;;;5086887;28;20203;-83
2023/10/16 03:53:35;;;;;;;0.93;0.93;;;7.90;66.20;6.20;96880.00;;;;5091339;28;20196;-83
2023/10/16 03:56:04;;;;;;;1.10;1.10;;;7.90;66.10;6.20;96875.00;;;;5092245;28;20883;-83
2023/10/16 03:58:34;;;;;;;1.27;1.23;;;7.90;66.00;6.20;96877.00;;;;5090598;28;20225;-83
2023/10/16 04:01:07;;;;;;;1.00;1.00;;;7.90;65.90;6.20;96870.00;;;;5090553;28;20211;-83
2023/10/16 04:03:46;;;;;;;1.20;1.10;;;8.00;66.00;6.10;96868.00;;;;5121972;27;20214;-83
2023/10/16 04:06:18;;;;;;;1.23;1.10;;;7.90;66.00;6.10;96867.00;;;;5086731;28;20215;-83
2023/10/16 04:08:46;;;;;;;1.33;0.90;;;8.00;66.80;6.10;96863.00;;;;5088176;28;20799;-83
2023/10/16 04:11:13;;;;;;;1.47;1.10;;;7.90;66.00;6.10;96871.00;;;;5090704;28;20206;-83
2023/10/16 04:13:47;;;;;;;1.00;0.90;;;7.80;65.80;6.10;96864.00;;;;5090611;28;20731;-83
2023/10/16 04:16:30;;;;;;;1.03;0.90;;;7.80;65.70;6.00;96863.00;;;;5092304;28;20227;-84
2023/10/16 04:19:34;;;;;;;5.80;1.40;;;7.80;65.70;6.00;96867.00;;;;5092268;28;20198;-83
2023/10/16 04:21:54;;;;;;;1.50;1.00;;;7.80;65.70;6.00;96872.00;;;;5092375;28;20223;-83
2023/10/16 04:24:40;;;;;;;1.00;1.00;;;7.80;65.60;5.90;96858.00;;;;5092263;28;20203;-83
2023/10/16 04:33:13;;;;;;;1.13;0.97;;;7.70;65.80;5.90;96853.00;;;;5151149;27;20519;-84
2023/10/16 04:36:49;;;;;;;1.80;1.70;;;7.70;65.90;5.90;96852.00;;;;5130316;28;20259;-84
2023/10/16 04:38:54;;;;;;;1.63;1.50;;;7.70;65.90;5.80;96862.00;;;;5149626;27;20240;-85
2023/10/16 04:44:24;;;;;;;2.40;2.00;;;7.50;65.80;5.80;96849.00;;;;5149816;27;20234;-84
2023/10/16 04:47:00;;;;;;;22.37;2.57;;;7.70;65.90;5.80;96853.00;;;;5151025;27;20245;-84
2023/10/16 04:52:35;;;;;;;101.33;5.70;;;7.50;66.70;5.70;96848.00;;;;5148154;27;20256;-83
2023/10/16 04:54:59;;;;;;;11.40;1.60;;;7.50;66.80;5.70;96844.00;;;;5149882;27;20216;-84
2023/10/16 05:03:23;;;;;;;4.87;1.63;;;7.50;67.30;5.70;96841.00;;;;5139700;27;20190;-85
2023/10/16 05:06:03;;;;;;;6.43;1.40;;;7.50;68.40;5.70;96841.00;;;;5149114;27;20213;-85
2023/10/16 05:08:49;;;;;;;0.80;0.80;;;7.50;68.00;5.70;96842.00;;;;5148672;27;20221;-84
2023/10/16 05:11:27;;;;;;;5.40;1.33;;;7.50;68.10;5.80;96839.00;;;;5147720;27;20217;-84
2023/10/16 05:16:47;;;;;;;3.43;1.30;;;7.40;68.30;5.80;96844.00;;;;5150130;27;20190;-84
2023/10/16 05:19:30;;;;;;;6.57;1.57;;;7.60;69.20;5.90;96838.00;;;;5150984;27;20177;-85
2023/10/16 05:22:09;;;;;;;21.07;1.90;;;7.60;68.50;5.90;96840.00;;;;5151280;27;20228;-86
2023/10/16 06:15:20;;;;;;;0.90;0.90;;;8.30;67.60;6.50;96852.00;;;;5136663;27;20242;-82
2023/10/16 06:17:52;;;;;;;0.90;0.90;;;8.30;67.60;6.50;96863.00;;;;5135569;27;20221;-83
2023/10/16 06:20:22;;;;;;;2.20;1.00;;;8.30;67.50;6.50;96859.00;;;;5136514;27;20306;-83
2023/10/16 06:22:51;;;;;;;0.90;0.90;;;8.30;67.50;6.50;96863.00;;;;5135169;27;20688;-83
2023/10/16 06:25:28;;;;;;;0.83;0.83;;;8.30;67.50;6.50;96864.00;;;;5135683;27;20201;-83
2023/10/16 06:28:11;;;;;;;1.10;1.10;;;8.30;67.50;6.50;96860.00;;;;5135859;27;20599;-83
2023/10/16 06:30:39;;;;;;;1.20;1.20;;;8.40;67.40;6.60;96863.00;;;;5135679;27;20676;-82
2023/10/16 06:33:14;;;;;;;0.80;0.80;;;8.40;67.40;6.60;96851.00;;;;5135911;27;20175;-83
2023/10/16 06:35:43;;;;;;;0.83;0.83;;;8.40;67.50;6.60;96867.00;;;;5135530;27;20271;-83
2023/10/16 06:38:11;;;;;;;1.77;1.00;;;8.40;67.50;6.70;96865.00;;;;5135427;27;20214;-83
2023/10/16 06:40:40;;;;;;;1.10;1.10;;;8.40;67.50;6.70;96859.00;;;;5135493;27;20213;-83
2023/10/16 06:43:13;;;;;;;1.20;1.10;;;8.40;67.50;6.70;96865.00;;;;5134573;27;20660;-83
2023/10/16 06:45:55;;;;;;;1.00;0.80;;;8.40;67.60;6.70;96858.00;;;;5135150;27;20194;-83
2023/10/16 06:48:22;;;;;;;1.07;1.07;;;8.50;67.60;6.80;96863.00;;;;5134558;27;20741;-83
2023/10/16 06:50:54;;;;;;;0.90;0.90;;;8.50;67.50;6.80;96861.00;;;;5133233;27;20198;-83
2023/10/16 06:53:22;;;;;;;1.43;1.33;;;8.50;67.60;6.80;96858.00;;;;5133223;27;20194;-83
2023/10/16 06:56:06;;;;;;;1.60;1.50;;;8.50;67.60;6.80;96861.00;;;;5132001;27;20198;-83
2023/10/16 06:58:35;;;;;;;1.30;1.30;;;8.60;67.60;6.90;96866.00;;;;5133463;27;20241;-83
2023/10/16 07:01:06;;;;;;;1.47;1.30;;;8.60;67.50;6.90;96871.00;;;;5133001;27;20289;-83
2023/10/16 07:03:34;;;;;;;2.20;2.00;;;8.60;67.60;6.90;96867.00;;;;5134095;27;20194;-83
2023/10/16 07:06:01;;;;;;;2.20;1.60;;;8.60;67.60;6.90;96861.00;;;;5134738;27;20692;-83
2023/10/16 07:08:28;;;;;;;2.33;1.40;;;8.70;67.60;6.90;96869.00;;;;5133943;27;20296;-83
2023/10/16 07:10:56;;;;;;;1.50;1.40;;;8.70;67.60;7.00;96864.00;;;;5133759;27;20194;-83
2023/10/16 07:13:28;;;;;;;1.60;1.50;;;8.70;67.60;7.00;96867.00;;;;5133569;27;20224;-83
2023/10/16 07:15:59;;;;;;;1.87;1.77;;;8.70;67.70;7.00;96874.00;;;;5133682;27;20276;-83
2023/10/16 07:18:33;;;;;;;1.57;1.47;;;8.70;67.80;7.10;96869.00;;;;5134395;27;20213;-83
2023/10/16 07:21:08;;;;;;;2.13;1.73;;;8.80;67.90;7.10;96866.00;;;;5133630;27;20194;-83
2023/10/16 07:23:42;;;;;;;3.00;1.40;;;8.80;68.10;7.10;96872.00;;;;5132615;27;20189;-83
2023/10/16 07:26:10;;;;;;;3.83;1.70;;;8.80;67.90;7.10;96865.00;;;;5134252;27;20197;-83
2023/10/16 07:28:41;;;;;;;1.50;1.50;;;8.80;67.80;7.20;96870.00;;;;5134553;27;20225;-83
2023/10/16 07:31:12;;;;;;;1.63;1.53;;;8.90;67.90;7.30;96871.00;;;;5134416;27;20206;-83
2023/10/16 07:33:41;;;;;;;3.60;1.40;;;8.90;67.90;7.30;96868.00;;;;5134002;27;20187;-83
2023/10/16 07:36:14;;;;;;;1.80;1.70;;;8.90;68.00;7.30;96867.00;;;;5133890;27;20235;-83
2023/10/16 07:53:44;;;;;;;2.40;2.27;;;9.00;68.10;8.10;96875.00;;;;5041910;28;20586;-79
2023/10/16 07:56:19;;;;;;;2.13;2.03;;;8.90;73.40;8.20;96881.00;;;;4993644;28;20290;-79
2023/10/16 07:58:48;;;;;;;2.23;1.87;;;9.10;72.40;8.20;96881.00;;;;4993371;28;20194;-79
2023/10/16 08:01:32;;;;;;;1.93;1.83;;;9.30;71.50;8.30;96882.00;;;;4991948;28;20234;-78
2023/10/16 08:04:00;;;;;;;2.50;1.80;;;9.50;71.00;8.30;96881.00;;;;5005095;28;20233;-81
2023/10/16 08:06:28;;;;;;;2.57;2.37;;;9.60;70.50;8.40;96884.00;;;;4993922;28;20209;-81
2023/10/16 08:11:42;;;;;;;2.00;1.80;;;9.80;70.10;8.50;96878.00;;;;4993630;28;20207;-81
2023/10/16 08:14:09;;;;;;;2.47;2.27;;;9.90;69.90;8.50;96882.00;;;;4988963;28;20238;-81
2023/10/16 08:16:38;;;;;;;2.20;2.10;;;10.00;69.70;8.60;96885.00;;;;4995737;28;20203;-81
2023/10/16 08:19:14;;;;;;;2.50;2.30;;;10.10;69.70;8.60;96879.00;;;;4989992;28;20258;-81
2023/10/16 08:21:43;;;;;;;2.17;2.07;;;10.10;69.60;8.60;96877.00;;;;4995684;28;20730;-82
2023/10/16 08:24:13;;;;;;;3.00;2.70;;;10.20;69.70;8.70;96882.00;;;;4996603;28;20223;-81
2023/10/16 08:26:44;;;;;;;2.43;2.27;;;10.20;69.60;8.70;96892.00;;;;4995007;28;20226;-81
2023/10/16 08:29:19;;;;;;;2.83;2.63;;;10.30;69.60;8.80;96881.00;;;;4994882;28;20289;-81
2023/10/16 08:32:37;;;;;;;2.30;2.10;;;10.30;69.50;8.90;96884.00;;;;4995514;28;20574;-81
2023/10/16 08:34:40;;;;;;;2.40;2.20;;;10.40;69.60;8.90;96871.00;;;;4993444;28;20281;-81
2023/10/16 08:37:08;;;;;;;3.70;2.47;;;10.40;69.40;9.00;96874.00;;;;4990224;28;20202;-81
2023/10/16 08:39:37;;;;;;;2.27;2.17;;;10.50;69.50;9.00;96881.00;;;;4992443;28;20917;-81
2023/10/16 08:42:18;;;;;;;2.20;2.10;;;10.60;69.60;9.10;96879.00;;;;4994612;28;20282;-81
2023/10/16 08:44:51;;;;;;;2.70;2.50;;;10.60;69.60;9.20;96877.00;;;;4993669;28;20203;-81
2023/10/16 08:47:24;;;;;;;2.93;2.60;;;10.70;69.70;9.20;96877.00;;;;4994627;28;20206;-81
2023/10/16 08:49:56;;;;;;;2.50;2.30;;;10.70;69.70;9.30;96885.00;;;;4992471;28;20672;-81
2023/10/16 08:52:25;;;;;;;2.73;2.53;;;10.80;69.90;9.40;96874.00;;;;4995612;28;20683;-81
2023/10/16 08:55:14;;;;;;;2.63;2.43;;;10.80;69.80;9.40;96870.00;;;;4982020;28;20211;-81
2023/10/16 08:57:43;;;;;;;3.27;3.07;;;10.90;70.00;9.50;96874.00;;;;4982337;28;20719;-81
2023/10/16 09:00:19;;;;;;;3.07;2.87;;;11.00;70.00;9.60;96871.00;;;;4982700;28;20205;-81
2023/10/16 09:02:51;;;;;;;3.27;2.97;;;11.00;70.10;9.70;96874.00;;;;4982531;28;20226;-81
2023/10/16 09:05:20;;;;;;;3.17;2.97;;;11.10;70.00;9.80;96873.00;;;;4983017;28;20742;-82
2023/10/16 09:07:48;;;;;;;3.30;3.00;;;11.20;70.10;9.90;96867.00;;;;4980538;28;20254;-81
2023/10/16 09:10:21;;;;;;;3.80;3.00;;;11.30;70.40;10.00;96875.00;;;;4982165;28;20214;-81
2023/10/16 09:12:54;;;;;;;3.17;2.87;;;11.30;70.50;10.10;96873.00;;;;5001652;28;20246;-81
2023/10/16 09:15:24;;;;;;;2.97;2.77;;;11.40;70.80;10.30;96864.00;;;;4999236;28;20203;-81
2023/10/16 09:17:54;;;;;;;3.13;2.90;;;11.50;70.80;10.40;96862.00;;;;5000787;28;20683;-81
2023/10/16 09:20:33;;;;;;;3.90;3.60;;;11.70;71.00;10.50;96871.00;;;;5002070;28;20195;-81
2023/10/16 09:23:02;;;;;;;5.03;2.93;;;11.80;71.00;10.70;96869.00;;;;5029445;28;20230;-81
2023/10/16 09:25:31;;;;;;;2.90;2.70;;;11.90;71.00;10.80;96869.00;;;;4999219;28;20267;-81
2023/10/16 09:27:59;;;;;;;2.90;2.70;;;12.00;71.00;10.90;96872.00;;;;5000009;28;20203;-81
2023/10/16 09:30:28;;;;;;;4.00;3.10;;;12.20;71.00;11.10;96867.00;;;;4999743;28;20210;-81
2023/10/16 09:32:56;;;;;;;2.97;2.77;;;12.30;71.00;11.20;96865.00;;;;5029719;28;20227;-81
2023/10/16 09:35:32;;;;;;;3.00;2.77;;;12.40;70.80;11.30;96870.00;;;;4998959;28;20289;-81
2023/10/16 09:38:15;;;;;;;2.90;2.70;;;12.50;70.70;11.50;96875.00;;;;4998905;28;20202;-81
2023/10/16 09:40:45;;;;;;;2.80;2.60;;;12.70;70.70;11.60;96882.00;;;;4997755;28;20206;-81
2023/10/16 09:43:24;;;;;;;2.43;2.23;;;12.80;70.60;11.70;96866.00;;;;4998483;28;20236;-81
2023/10/16 09:46:33;;;;;;;2.90;2.70;;;12.90;70.50;11.80;96877.00;;;;5000934;28;20195;-81
2023/10/16 09:48:47;;;;;;;2.97;2.77;;;13.00;70.40;11.90;96873.00;;;;5000867;28;20199;-81
2023/10/16 09:51:15;;;;;;;3.00;2.80;;;13.10;70.40;12.10;96870.00;;;;5016102;28;20206;-81
2023/10/16 09:53:42;;;;;;;2.67;2.50;;;13.20;70.30;12.20;96869.00;;;;5000934;28;20737;-81
2023/10/16 09:56:17;;;;;;;2.67;2.47;;;13.30;70.80;12.30;96867.00;;;;5001264;28;20214;-81
2023/10/16 09:58:51;;;;;;;2.80;2.60;;;13.50;70.10;12.40;96871.00;;;;5000706;28;20202;-81
2023/10/16 10:01:29;;;;;;;2.70;2.50;;;13.60;70.10;12.60;96867.00;;;;5002673;28;20199;-81
2023/10/16 10:03:57;;;;;;;2.73;2.53;;;13.70;70.20;12.70;96866.00;;;;4999364;28;20218;-81
2023/10/16 10:06:32;;;;;;;2.80;2.60;;;13.80;70.10;12.80;96861.00;;;;4999668;28;20285;-81
2023/10/16 10:12:22;;;;;;;3.00;2.80;;;14.00;69.80;13.10;96871.00;;;;4987249;28;20589;-82
2023/10/16 10:15:12;;;;;;;2.80;2.53;;;14.20;69.20;13.20;96879.00;;;;5001123;28;20298;-81
2023/10/16 10:17:41;;;;;;;3.00;2.80;;;14.30;68.70;13.30;96871.00;;;;4999846;28;21541;-81
2023/10/16 10:20:18;;;;;;;2.60;2.40;;;14.40;68.20;13.40;96871.00;;;;4993093;28;20195;-81
2023/10/16 10:22:54;;;;;;;2.40;2.20;;;14.50;68.20;13.50;96881.00;;;;4999761;28;20253;-82
2023/10/16 10:25:37;;;;;;;2.40;2.20;;;14.60;69.10;13.60;96879.00;;;;4998231;28;20210;-81
2023/10/16 10:28:16;;;;;;;2.90;2.70;;;14.70;68.50;13.70;96872.00;;;;4999255;28;20250;-82
2023/10/16 10:30:46;;;;;;;3.37;3.07;;;14.80;68.20;13.90;96866.00;;;;4998368;28;20195;-81
2023/10/16 10:33:34;;;;;;;2.47;2.37;;;14.90;68.00;13.90;96868.00;;;;4998731;28;20226;-81
2023/10/16 10:36:36;;;;;;;2.30;2.20;;;15.00;67.90;14.00;96866.00;;;;4998424;28;20194;-82
2023/10/16 10:39:40;;;;;;;3.03;2.60;;;15.10;67.30;14.10;96860.00;;;;5000053;28;20638;-81
2023/10/16 10:42:16;;;;;;;3.00;2.80;;;15.20;67.10;14.10;96867.00;;;;4940273;29;20248;-79
2023/10/16 10:45:17;;;;;;;3.07;2.60;;;15.20;67.00;14.10;96867.00;;;;4993358;28;20198;-81
2023/10/16 10:47:43;;;;;;;2.30;2.20;;;15.30;66.30;14.10;96871.00;;;;5000626;28;20195;-81
2023/10/16 10:50:14;;;;;;;2.67;2.47;;;15.30;66.60;14.10;96867.00;;;;5000801;28;20202;-81
2023/10/16 10:52:43;;;;;;;2.67;2.47;;;15.30;66.10;14.10;96862.00;;;;5001595;28;20277;-81
2023/10/16 10:55:21;;;;;;;2.53;2.33;;;15.30;66.10;14.10;96850.00;;;;5002189;28;20206;-81
2023/10/16 10:57:58;;;;;;;2.40;2.20;;;15.30;65.20;14.10;96847.00;;;;5001387;28;20572;-78
2023/10/16 11:00:49;;;;;;;2.70;2.50;;;15.30;65.20;14.10;96840.00;;;;5000253;28;20741;-78
2023/10/16 11:03:41;;;;;;;2.43;2.10;;;15.30;65.30;14.10;96833.00;;;;4998392;28;20226;-79
2023/10/16 11:06:19;;;;;;;2.00;1.90;;;15.30;65.30;14.10;96835.00;;;;4996092;28;20233;-79
2023/10/16 11:08:49;;;;;;;2.10;1.90;;;15.30;65.10;14.20;96827.00;;;;5001494;28;20225;-79
2023/10/16 11:11:16;;;;;;;1.67;1.57;;;15.30;65.00;14.20;96829.00;;;;4993493;28;20284;-79
2023/10/16 11:13:47;;;;;;;2.50;2.07;;;15.30;64.40;14.20;96819.00;;;;4999711;28;20235;-78
2023/10/16 11:16:17;;;;;;;1.90;1.80;;;15.30;63.90;14.20;96815.00;;;;4998833;28;20198;-79
2023/10/16 11:18:58;;;;;;;1.77;1.67;;;15.40;64.30;14.20;96803.00;;;;4999894;28;20207;-78
2023/10/16 11:21:27;;;;;;;1.87;1.73;;;15.40;62.90;14.20;96810.00;;;;5000098;28;20206;-78
2023/10/16 11:23:55;;;;;;;1.70;1.60;;;15.40;62.90;14.20;96801.00;;;;4997553;28;20342;-78
2023/10/16 11:26:26;;;;;;;1.80;1.70;;;15.40;62.50;14.20;96810.00;;;;4992621;28;20206;-78
2023/10/16 11:28:54;;;;;;;4.17;2.30;;;15.40;62.30;14.30;96796.00;;;;4996692;28;20230;-78
2023/10/16 11:31:24;;;;;;;1.90;1.80;;;15.40;62.10;14.30;96791.00;;;;5000984;28;20199;-78
2023/10/16 11:34:03;;;;;;;2.70;1.90;;;15.40;62.20;14.30;96786.00;;;;4997261;28;20293;-78
2023/10/16 11:36:34;;;;;;;2.10;2.00;;;15.40;61.80;14.30;96797.00;;;;4995006;28;20566;-78
2023/10/16 11:39:03;;;;;;;1.60;1.50;;;15.40;61.50;14.30;96788.00;;;;4998711;28;20202;-79
2023/10/16 11:41:32;;;;;;;2.73;1.53;;;15.40;61.10;14.20;96776.00;;;;4997088;28;20205;-79
2023/10/16 11:44:01;;;;;;;1.70;1.60;;;15.40;61.10;14.30;96791.00;;;;4997284;28;20646;-78
2023/10/16 11:46:33;;;;;;;1.90;1.80;;;15.40;61.20;14.20;96779.00;;;;5002691;28;20253;-78
2023/10/16 11:51:46;;;;;;;3.20;1.70;;;15.40;61.70;14.20;96775.00;;;;4997122;28;20694;-77
2023/10/16 11:54:19;;;;;;;1.77;1.67;;;15.40;61.90;14.30;96777.00;;;;4999243;28;20690;-79
2023/10/16 11:56:48;;;;;;;1.67;1.57;;;15.40;61.70;14.30;96779.00;;;;4997372;28;20244;-79
2023/10/16 11:59:19;;;;;;;1.80;1.47;;;15.40;61.40;14.40;96774.00;;;;4996354;28;20289;-80
2023/10/16 12:01:50;;;;;;;1.30;1.20;;;15.40;61.50;14.40;96770.00;;;;5001063;28;20201;-78
2023/10/16 12:04:19;;;;;;;1.47;1.37;;;15.50;60.40;14.40;96767.00;;;;5002287;28;20316;-78
2023/10/16 12:06:48;;;;;;;1.57;1.47;;;15.50;60.70;14.50;96770.00;;;;5001612;28;20216;-78
2023/10/16 12:09:19;;;;;;;1.60;1.50;;;15.50;60.50;14.50;96768.00;;;;5003464;28;20222;-78
2023/10/16 12:11:49;;;;;;;1.27;1.13;;;15.50;60.20;14.50;96768.00;;;;5002646;28;20209;-78
2023/10/16 12:14:16;;;;;;;1.23;1.20;;;15.50;59.80;14.50;96768.00;;;;5002589;28;20290;-78
2023/10/16 12:16:46;;;;;;;1.27;1.20;;;15.50;59.60;14.50;96768.00;;;;5000739;28;20226;-78
2023/10/16 12:19:16;;;;;;;1.43;1.33;;;15.60;59.30;14.50;96764.00;;;;5001546;28;20214;-78
2023/10/16 12:21:47;;;;;;;0.90;0.90;;;15.60;59.00;14.50;96769.00;;;;5000032;28;20194;-78
2023/10/16 12:24:25;;;;;;;1.13;1.10;;;15.60;59.20;14.50;96761.00;;;;5000033;28;20589;-78
2023/10/16 12:26:52;;;;;;;1.17;1.13;;;15.60;59.40;14.50;96762.00;;;;5004963;28;20191;-81
2023/10/16 12:29:22;;;;;;;1.03;1.00;;;15.60;59.40;14.50;96749.00;;;;4997905;28;20202;-80
2023/10/16 12:31:50;;;;;;;1.07;1.00;;;15.60;58.80;14.50;96747.00;;;;4997500;28;20210;-80
2023/10/16 12:34:19;;;;;;;1.30;1.20;;;15.60;58.90;14.50;96745.00;;;;4998552;28;20223;-80
2023/10/16 12:36:49;;;;;;;2.00;1.30;;;15.60;58.70;14.50;96729.00;;;;4998268;28;20194;-80
2023/10/16 12:39:24;;;;;;;0.90;0.90;;;15.60;58.70;14.50;96742.00;;;;4998620;28;20214;-80
2023/10/16 12:41:54;;;;;;;2.67;1.30;;;15.60;58.90;14.50;96731.00;;;;4998814;28;20229;-80
2023/10/16 12:44:23;;;;;;;0.87;0.87;;;15.60;57.70;14.50;96725.00;;;;5000161;28;20218;-80
2023/10/16 12:46:52;;;;;;;1.37;1.27;;;15.60;57.60;14.50;96725.00;;;;4998919;28;20321;-80
2023/10/16 12:49:20;;;;;;;1.00;1.00;;;15.60;57.70;14.50;96721.00;;;;4995491;28;20297;-80
2023/10/16 12:51:48;;;;;;;2.17;1.07;;;15.60;57.80;14.50;96711.00;;;;5000852;28;20206;-79
2023/10/16 12:54:16;;;;;;;1.30;1.20;;;15.60;57.90;14.50;96715.00;;;;4994504;28;20254;-79
2023/10/16 12:56:44;;;;;;;1.67;1.57;;;15.60;57.60;14.60;96712.00;;;;4999589;28;20209;-79
2023/10/16 12:59:11;;;;;;;1.63;1.53;;;15.60;57.60;14.60;96706.00;;;;5000011;28;20654;-79
2023/10/16 13:01:40;;;;;;;2.67;1.10;;;15.60;57.50;14.60;96702.00;;;;4999630;28;20203;-79